createdAt,value
2018-09-15T12:45:41.692Z,31.90
2018-09-15T12:48:10.180Z,30.00
2018-09-15T12:50:38.947Z,30.80
2018-09-15T12:53:08.253Z,34.50
2018-09-15T12:55:36.603Z,32.70
2018-09-15T12:58:04.995Z,33.20
2018-09-15T13:00:33.620Z,33.70
2018-09-15T13:03:02.027Z,31.80
2018-09-15T13:05:31.494Z,33.50
2018-09-15T13:08:00.133Z,33.90
2018-09-15T13:10:28.619Z,35.60
2018-09-15T13:12:57.028Z,35.00
2018-09-15T13:15:30.572Z,36.00
2018-09-15T13:17:59.036Z,36.30
2018-09-15T13:20:30.487Z,34.80
2018-09-15T13:23:02.639Z,36.40
2018-09-15T13:25:33.447Z,36.30
2018-09-15T13:28:08.017Z,37.80
2018-09-15T13:30:36.400Z,38.50
2018-09-15T13:33:05.239Z,37.20
2018-09-15T13:35:34.589Z,38.20
2018-09-15T13:38:03.068Z,37.80
2018-09-15T13:40:31.555Z,37.70
2018-09-15T13:43:00.696Z,38.20
2018-09-15T13:45:29.151Z,37.70
2018-09-15T13:48:16.967Z,38.00
2018-09-15T13:50:45.384Z,37.40
2018-09-15T13:53:14.518Z,40.20
2018-09-15T13:55:42.928Z,40.10
2018-09-15T13:58:12.640Z,41.40
2018-09-15T14:00:41.713Z,41.80
2018-09-15T14:03:13.960Z,41.50
2018-09-15T14:05:42.840Z,40.90
2018-09-15T14:08:11.247Z,40.70
2018-09-15T14:10:40.012Z,38.50
2018-09-15T14:13:08.780Z,40.20
2018-09-15T14:15:37.189Z,39.60
2018-09-15T14:18:07.732Z,38.40
2018-09-15T14:20:36.202Z,40.50
2018-09-15T14:23:04.565Z,40.00
2018-09-15T14:25:32.987Z,41.50
2018-09-15T14:28:07.440Z,40.20
2018-09-15T14:30:36.542Z,40.50
2018-09-15T14:33:04.924Z,41.70
2018-09-15T14:35:33.712Z,39.70
2018-09-15T14:38:02.369Z,40.30
2018-09-15T14:40:45.976Z,42.10
2018-09-15T14:43:15.412Z,41.40
2018-09-15T14:45:43.840Z,42.10
2018-09-15T14:48:12.277Z,43.70
2018-09-15T14:50:40.723Z,43.90
2018-09-15T14:53:25.988Z,44.30
2018-09-15T14:56:00.108Z,44.60
2018-09-15T14:58:35.288Z,44.30
2018-09-15T15:01:03.847Z,45.20
2018-09-15T15:03:32.208Z,44.50
2018-09-15T15:06:01.412Z,44.50
2018-09-15T15:08:29.816Z,43.80
2018-09-15T15:11:10.119Z,44.30
2018-09-15T15:13:38.504Z,43.70
2018-09-15T15:16:14.848Z,45.30
2018-09-15T15:18:43.539Z,44.50
2018-09-15T15:21:11.971Z,44.50
2018-09-15T15:23:41.001Z,44.30
2018-09-15T15:26:09.793Z,44.70
2018-09-15T15:28:38.320Z,44.50
2018-09-15T15:31:06.640Z,45.60
2018-09-15T15:33:35.041Z,45.40
2018-09-15T15:39:02.511Z,45.70
2018-09-15T15:44:15.390Z,45.20
2018-09-15T15:46:44.053Z,44.00
2018-09-15T15:49:12.823Z,45.50
2018-09-15T15:51:41.616Z,46.00
2018-09-15T15:54:10.774Z,45.50
2018-09-15T15:56:39.169Z,45.90
2018-09-15T15:59:07.853Z,45.60
2018-09-15T16:01:36.355Z,45.60
2018-09-15T16:04:04.765Z,45.80
2018-09-15T16:06:33.391Z,46.50
2018-09-15T16:09:02.103Z,46.00
2018-09-15T16:11:30.522Z,46.00
2018-09-15T16:13:58.924Z,46.20
2018-09-15T16:16:31.963Z,46.80
2018-09-15T16:19:00.560Z,47.90
2018-09-15T16:21:29.529Z,46.80
2018-09-15T16:23:57.971Z,47.10
2018-09-15T16:26:26.382Z,47.60
2018-09-15T16:28:55.444Z,48.10
2018-09-15T16:31:23.872Z,46.90
2018-09-15T16:33:52.820Z,46.80
2018-09-15T16:36:21.223Z,47.10
2018-09-15T16:38:50.063Z,47.30
2018-09-15T16:41:18.443Z,47.60
2018-09-15T16:43:46.992Z,48.10
2018-09-15T16:46:15.572Z,48.30
2018-09-15T16:48:44.008Z,48.90
2018-09-15T16:51:12.483Z,49.00
2018-09-15T16:53:41.292Z,49.30
2018-09-15T16:56:10.172Z,49.30
2018-09-15T16:58:38.603Z,49.80
2018-09-15T17:01:07.001Z,49.70
2018-09-15T17:03:35.443Z,50.20
2018-09-15T17:06:03.900Z,51.80
2018-09-15T17:08:32.501Z,53.10
2018-09-15T17:11:01.036Z,52.60
2018-09-15T17:13:29.520Z,54.00
2018-09-15T17:15:58.106Z,54.30
2018-09-15T17:18:26.502Z,55.50
2018-09-15T17:20:55.010Z,56.10
2018-09-15T17:23:23.508Z,56.90
2018-09-15T17:25:51.974Z,57.50
2018-09-15T17:28:20.356Z,58.00
2018-09-15T17:30:49.106Z,58.50
2018-09-15T17:33:18.240Z,58.70
2018-09-15T17:35:46.735Z,59.00
2018-09-15T17:38:15.511Z,59.60
2018-09-15T17:40:44.760Z,60.70
2018-09-15T17:43:13.348Z,60.90
2018-09-15T17:45:42.698Z,61.40
2018-09-15T17:48:11.381Z,62.40
2018-09-15T17:50:39.812Z,63.40
2018-09-15T17:53:08.476Z,63.70
2018-09-15T17:55:36.878Z,63.90
2018-09-15T17:58:05.380Z,63.80
2018-09-15T18:00:33.804Z,63.80
2018-09-15T18:03:02.229Z,64.10
2018-09-15T18:05:30.631Z,65.00
2018-09-15T18:07:59.640Z,65.10
2018-09-15T18:10:28.080Z,65.50
2018-09-15T18:12:57.335Z,65.80
2018-09-15T18:15:25.815Z,65.90
2018-09-15T18:17:54.176Z,65.80
2018-09-15T18:20:22.675Z,66.10
2018-09-15T18:22:51.063Z,66.60
2018-09-15T18:25:19.912Z,66.70
2018-09-15T18:27:48.316Z,67.20
2018-09-15T18:30:16.783Z,67.50
2018-09-15T18:32:45.365Z,67.10
2018-09-15T18:35:14.144Z,67.40
2018-09-15T18:37:45.743Z,67.30
2018-09-15T18:40:15.225Z,67.80
2018-09-15T18:42:43.755Z,67.90
2018-09-15T18:45:12.282Z,68.20
2018-09-15T18:47:41.675Z,68.40
2018-09-15T18:50:10.732Z,68.70
2018-09-15T18:52:39.291Z,68.90
2018-09-15T18:55:07.841Z,69.30
2018-09-15T18:57:36.552Z,69.40
2018-09-15T19:00:04.984Z,69.70
2018-09-15T19:02:33.393Z,69.90
2018-09-15T19:05:02.326Z,71.00
2018-09-15T19:07:30.768Z,70.70
2018-09-15T19:09:59.663Z,70.80
2018-09-15T19:12:29.300Z,70.80
2018-09-15T19:14:57.948Z,71.10
2018-09-15T19:17:29.491Z,71.20
2018-09-15T19:19:57.915Z,71.40
2018-09-15T19:22:26.316Z,71.80
2018-09-15T19:24:54.824Z,71.80
2018-09-15T19:27:23.500Z,72.10
2018-09-15T19:29:51.904Z,72.40
2018-09-15T19:32:20.291Z,72.70
2018-09-15T19:34:48.833Z,72.80
2018-09-15T19:37:17.352Z,72.70
2018-09-15T19:39:45.857Z,72.80
2018-09-15T19:42:14.481Z,72.80
2018-09-15T19:44:42.848Z,73.00
2018-09-15T19:47:11.379Z,73.00
2018-09-15T19:49:48.117Z,73.20
2018-09-15T19:52:16.635Z,73.00
2018-09-15T19:54:45.192Z,73.20
2018-09-15T19:57:13.942Z,73.50
2018-09-15T19:59:42.994Z,73.80
2018-09-15T20:02:12.095Z,74.00
2018-09-15T20:04:40.791Z,74.20
2018-09-15T20:07:09.539Z,74.50
2018-09-15T20:09:38.565Z,74.70
2018-09-15T20:12:07.099Z,74.70
2018-09-15T20:14:35.935Z,74.60
2018-09-15T20:17:03.352Z,74.60
2018-09-15T20:19:30.949Z,74.60
2018-09-15T20:21:58.396Z,75.10
2018-09-15T20:24:26.839Z,75.30
2018-09-15T20:26:55.424Z,75.30
2018-09-15T20:32:26.595Z,75.80
2018-09-15T20:34:55.525Z,75.80
2018-09-15T20:37:23.999Z,76.00
2018-09-15T20:39:53.184Z,75.90
2018-09-15T20:42:21.671Z,76.20
2018-09-15T20:44:50.124Z,76.60
2018-09-15T20:47:18.519Z,76.60
2018-09-15T20:49:46.964Z,76.80
2018-09-15T20:52:15.660Z,76.80
2018-09-15T20:54:44.340Z,76.80
2018-09-15T20:57:13.630Z,76.50
2018-09-15T20:59:42.899Z,76.40
2018-09-15T21:02:12.225Z,76.40
2018-09-15T21:04:42.231Z,76.60
2018-09-15T21:07:10.638Z,76.50
2018-09-15T21:09:57.156Z,77.30
2018-09-15T21:12:39.125Z,76.50
2018-09-15T21:15:07.659Z,76.80
2018-09-15T21:20:13.711Z,77.10
2018-09-15T21:22:45.620Z,77.20
2018-09-15T21:25:14.480Z,77.60
2018-09-15T21:27:43.478Z,78.70
2018-09-15T21:30:14.134Z,77.70
2018-09-15T21:32:42.635Z,77.50
2018-09-15T21:35:11.079Z,77.40
2018-09-15T21:37:39.899Z,77.60
2018-09-15T21:40:25.851Z,77.40
2018-09-15T21:42:54.288Z,77.50
2018-09-15T21:45:23.065Z,77.80
2018-09-15T21:47:52.314Z,78.20
2018-09-15T21:50:20.727Z,78.40
2018-09-15T21:52:49.456Z,78.40
2018-09-15T21:55:17.905Z,77.80
2018-09-15T21:57:46.803Z,77.90
2018-09-15T22:00:15.312Z,78.00
2018-09-15T22:02:43.944Z,78.60
2018-09-15T22:05:12.630Z,78.70
2018-09-15T22:07:41.135Z,78.50
2018-09-15T22:10:10.164Z,78.50
2018-09-15T22:12:39.489Z,78.70
2018-09-15T22:15:15.319Z,78.70
2018-09-15T22:18:00.088Z,78.70
2018-09-15T22:20:28.484Z,78.60
2018-09-15T22:22:57.240Z,79.20
2018-09-15T22:25:25.682Z,79.20
2018-09-15T22:27:54.105Z,79.40
2018-09-15T22:30:41.156Z,79.50
2018-09-15T22:33:09.529Z,80.30
2018-09-15T22:35:43.671Z,79.80
2018-09-15T22:38:12.436Z,79.80
2018-09-15T22:40:40.886Z,79.60
2018-09-15T22:43:14.228Z,79.80
2018-09-15T22:48:27.314Z,79.50
2018-09-15T22:50:55.785Z,79.20
2018-09-15T22:53:24.209Z,79.40
2018-09-15T22:58:52.416Z,80.10
2018-09-15T23:01:20.840Z,80.30
2018-09-15T23:03:49.344Z,80.20
2018-09-15T23:06:17.795Z,80.40
2018-09-15T23:08:46.175Z,80.70
2018-09-15T23:11:14.644Z,80.70
2018-09-15T23:13:43.788Z,80.70
2018-09-15T23:18:56.816Z,81.00
2018-09-15T23:21:25.215Z,81.20
2018-09-15T23:23:53.955Z,81.40
2018-09-15T23:26:22.492Z,81.40
2018-09-15T23:28:51.652Z,80.90
2018-09-15T23:31:20.273Z,80.40
2018-09-15T23:33:48.813Z,80.50
2018-09-15T23:36:17.292Z,80.70
2018-09-15T23:38:46.395Z,81.20
2018-09-15T23:41:14.819Z,81.70
2018-09-15T23:43:43.596Z,81.40
2018-09-15T23:46:12.816Z,80.70
2018-09-15T23:48:41.268Z,81.00
2018-09-15T23:51:09.722Z,80.80
2018-09-15T23:53:38.456Z,81.20
2018-09-15T23:56:06.833Z,82.10
2018-09-15T23:58:35.226Z,81.60
